sensor_id;sensor_type;location;lat;lon;timestamp;P1;durP1;ratioP1;P2;durP2;ratioP2
79646;SDS011;69119;41.718;21.786;2024-02-21T00:02:19;8.95;;;5.00;;
79646;SDS011;69119;41.718;21.786;2024-02-21T00:04:45;8.05;;;3.92;;
79646;SDS011;69119;41.718;21.786;2024-02-21T00:07:11;8.57;;;4.20;;
79646;SDS011;69119;41.718;21.786;2024-02-21T00:09:37;10.90;;;4.55;;
79646;SDS011;69119;41.718;21.786;2024-02-21T00:12:04;11.05;;;4.72;;
79646;SDS011;69119;41.718;21.786;2024-02-21T00:14:30;9.65;;;4.88;;
79646;SDS011;69119;41.718;21.786;2024-02-21T00:16:56;9.00;;;5.18;;
79646;SDS011;69119;41.718;21.786;2024-02-21T00:19:22;9.82;;;4.85;;
79646;SDS011;69119;41.718;21.786;2024-02-21T00:21:48;10.20;;;5.30;;
79646;SDS011;69119;41.718;21.786;2024-02-21T00:24:14;8.52;;;4.60;;
79646;SDS011;69119;41.718;21.786;2024-02-21T00:26:41;8.65;;;4.13;;
79646;SDS011;69119;41.718;21.786;2024-02-21T00:29:07;9.68;;;4.57;;
79646;SDS011;69119;41.718;21.786;2024-02-21T00:31:33;8.82;;;3.70;;
79646;SDS011;69119;41.718;21.786;2024-02-21T00:33:59;8.23;;;4.80;;
79646;SDS011;69119;41.718;21.786;2024-02-21T00:36:25;10.80;;;5.20;;
79646;SDS011;69119;41.718;21.786;2024-02-21T00:38:51;8.13;;;4.40;;
79646;SDS011;69119;41.718;21.786;2024-02-21T00:41:17;8.45;;;4.95;;
79646;SDS011;69119;41.718;21.786;2024-02-21T00:43:43;8.85;;;4.53;;
79646;SDS011;69119;41.718;21.786;2024-02-21T00:46:10;10.60;;;5.95;;
79646;SDS011;69119;41.718;21.786;2024-02-21T00:48:36;10.88;;;5.18;;
79646;SDS011;69119;41.718;21.786;2024-02-21T00:51:02;11.50;;;5.45;;
79646;SDS011;69119;41.718;21.786;2024-02-21T00:53:28;10.65;;;5.13;;
79646;SDS011;69119;41.718;21.786;2024-02-21T00:55:54;9.95;;;5.30;;
79646;SDS011;69119;41.718;21.786;2024-02-21T00:58:21;10.80;;;4.68;;
79646;SDS011;69119;41.718;21.786;2024-02-21T01:03:14;9.85;;;5.20;;
79646;SDS011;69119;41.718;21.786;2024-02-21T01:05:40;11.32;;;6.15;;
79646;SDS011;69119;41.718;21.786;2024-02-21T01:08:06;10.57;;;5.47;;
79646;SDS011;69119;41.718;21.786;2024-02-21T01:10:32;10.90;;;5.60;;
79646;SDS011;69119;41.718;21.786;2024-02-21T01:12:58;9.77;;;5.20;;
79646;SDS011;69119;41.718;21.786;2024-02-21T01:15:24;13.15;;;7.20;;
79646;SDS011;69119;41.718;21.786;2024-02-21T01:17:50;14.35;;;8.25;;
79646;SDS011;69119;41.718;21.786;2024-02-21T01:20:19;13.02;;;6.70;;
79646;SDS011;69119;41.718;21.786;2024-02-21T01:22:46;12.95;;;6.70;;
79646;SDS011;69119;41.718;21.786;2024-02-21T01:25:12;13.30;;;6.85;;
79646;SDS011;69119;41.718;21.786;2024-02-21T01:27:38;14.90;;;7.88;;
79646;SDS011;69119;41.718;21.786;2024-02-21T01:30:04;13.07;;;7.43;;
79646;SDS011;69119;41.718;21.786;2024-02-21T01:34:57;12.07;;;6.25;;
79646;SDS011;69119;41.718;21.786;2024-02-21T01:37:23;12.63;;;6.40;;
79646;SDS011;69119;41.718;21.786;2024-02-21T01:39:49;13.55;;;7.10;;
79646;SDS011;69119;41.718;21.786;2024-02-21T01:42:15;12.18;;;6.38;;
79646;SDS011;69119;41.718;21.786;2024-02-21T01:44:41;11.32;;;6.93;;
79646;SDS011;69119;41.718;21.786;2024-02-21T01:47:07;13.38;;;6.60;;
79646;SDS011;69119;41.718;21.786;2024-02-21T01:49:34;12.57;;;6.22;;
79646;SDS011;69119;41.718;21.786;2024-02-21T01:52:00;11.60;;;6.30;;
79646;SDS011;69119;41.718;21.786;2024-02-21T01:54:27;12.00;;;5.70;;
79646;SDS011;69119;41.718;21.786;2024-02-21T01:59:19;9.70;;;4.53;;
79646;SDS011;69119;41.718;21.786;2024-02-21T02:01:47;11.65;;;5.40;;
79646;SDS011;69119;41.718;21.786;2024-02-21T02:04:13;11.00;;;5.70;;
79646;SDS011;69119;41.718;21.786;2024-02-21T02:06:39;11.35;;;5.57;;
79646;SDS011;69119;41.718;21.786;2024-02-21T02:09:06;11.02;;;5.80;;
79646;SDS011;69119;41.718;21.786;2024-02-21T02:11:32;14.05;;;7.72;;
79646;SDS011;69119;41.718;21.786;2024-02-21T02:13:58;12.82;;;7.60;;
79646;SDS011;69119;41.718;21.786;2024-02-21T02:16:24;13.77;;;8.18;;
79646;SDS011;69119;41.718;21.786;2024-02-21T02:18:50;16.77;;;8.88;;
79646;SDS011;69119;41.718;21.786;2024-02-21T02:21:29;15.63;;;7.82;;
79646;SDS011;69119;41.718;21.786;2024-02-21T02:23:55;16.58;;;10.05;;
79646;SDS011;69119;41.718;21.786;2024-02-21T02:26:22;14.93;;;8.65;;
79646;SDS011;69119;41.718;21.786;2024-02-21T02:28:48;16.08;;;8.85;;
79646;SDS011;69119;41.718;21.786;2024-02-21T02:31:14;21.95;;;10.98;;
79646;SDS011;69119;41.718;21.786;2024-02-21T02:33:42;18.33;;;8.82;;
79646;SDS011;69119;41.718;21.786;2024-02-21T02:36:09;15.10;;;8.40;;
79646;SDS011;69119;41.718;21.786;2024-02-21T02:38:35;21.00;;;11.68;;
79646;SDS011;69119;41.718;21.786;2024-02-21T02:41:02;16.65;;;8.98;;
79646;SDS011;69119;41.718;21.786;2024-02-21T02:43:28;18.25;;;10.25;;
79646;SDS011;69119;41.718;21.786;2024-02-21T02:45:54;18.60;;;9.77;;
79646;SDS011;69119;41.718;21.786;2024-02-21T02:48:20;17.23;;;9.63;;
79646;SDS011;69119;41.718;21.786;2024-02-21T02:50:47;18.90;;;10.55;;
79646;SDS011;69119;41.718;21.786;2024-02-21T02:53:14;13.15;;;7.38;;
79646;SDS011;69119;41.718;21.786;2024-02-21T02:55:40;17.80;;;11.10;;
79646;SDS011;69119;41.718;21.786;2024-02-21T02:58:06;18.25;;;8.50;;
79646;SDS011;69119;41.718;21.786;2024-02-21T03:00:33;18.25;;;9.40;;
79646;SDS011;69119;41.718;21.786;2024-02-21T03:03:01;19.33;;;9.57;;
79646;SDS011;69119;41.718;21.786;2024-02-21T03:05:30;14.18;;;5.25;;
79646;SDS011;69119;41.718;21.786;2024-02-21T03:07:56;18.58;;;9.35;;
79646;SDS011;69119;41.718;21.786;2024-02-21T03:10:23;18.35;;;9.70;;
79646;SDS011;69119;41.718;21.786;2024-02-21T03:12:49;18.33;;;9.60;;
79646;SDS011;69119;41.718;21.786;2024-02-21T03:15:18;19.02;;;8.82;;
79646;SDS011;69119;41.718;21.786;2024-02-21T03:17:44;18.02;;;9.43;;
79646;SDS011;69119;41.718;21.786;2024-02-21T03:20:10;19.95;;;11.63;;
79646;SDS011;69119;41.718;21.786;2024-02-21T03:22:36;20.10;;;12.50;;
79646;SDS011;69119;41.718;21.786;2024-02-21T03:25:03;20.80;;;11.60;;
79646;SDS011;69119;41.718;21.786;2024-02-21T03:27:29;18.88;;;10.80;;
79646;SDS011;69119;41.718;21.786;2024-02-21T03:29:55;22.42;;;13.13;;
79646;SDS011;69119;41.718;21.786;2024-02-21T03:32:21;21.23;;;11.10;;
79646;SDS011;69119;41.718;21.786;2024-02-21T03:34:47;20.05;;;9.13;;
79646;SDS011;69119;41.718;21.786;2024-02-21T03:37:13;21.95;;;10.27;;
79646;SDS011;69119;41.718;21.786;2024-02-21T03:39:40;22.25;;;12.20;;
79646;SDS011;69119;41.718;21.786;2024-02-21T03:42:06;22.98;;;10.95;;
79646;SDS011;69119;41.718;21.786;2024-02-21T03:44:32;18.45;;;10.27;;
79646;SDS011;69119;41.718;21.786;2024-02-21T03:46:58;20.88;;;11.32;;
79646;SDS011;69119;41.718;21.786;2024-02-21T03:49:25;18.02;;;9.43;;
79646;SDS011;69119;41.718;21.786;2024-02-21T03:51:51;20.23;;;12.00;;
79646;SDS011;69119;41.718;21.786;2024-02-21T03:54:17;21.55;;;11.93;;
79646;SDS011;69119;41.718;21.786;2024-02-21T03:56:43;19.90;;;11.43;;
79646;SDS011;69119;41.718;21.786;2024-02-21T03:59:09;21.58;;;11.90;;
79646;SDS011;69119;41.718;21.786;2024-02-21T04:01:35;18.77;;;10.40;;
79646;SDS011;69119;41.718;21.786;2024-02-21T04:04:02;24.35;;;12.52;;
79646;SDS011;69119;41.718;21.786;2024-02-21T04:06:28;23.08;;;13.88;;
79646;SDS011;69119;41.718;21.786;2024-02-21T04:08:54;19.90;;;11.30;;
79646;SDS011;69119;41.718;21.786;2024-02-21T04:11:20;20.20;;;11.57;;
79646;SDS011;69119;41.718;21.786;2024-02-21T04:13:46;21.00;;;11.93;;
79646;SDS011;69119;41.718;21.786;2024-02-21T04:16:15;28.52;;;14.82;;
79646;SDS011;69119;41.718;21.786;2024-02-21T04:18:41;23.92;;;12.63;;
79646;SDS011;69119;41.718;21.786;2024-02-21T04:23:33;18.95;;;10.25;;
79646;SDS011;69119;41.718;21.786;2024-02-21T04:25:59;21.05;;;11.85;;
79646;SDS011;69119;41.718;21.786;2024-02-21T04:28:26;22.20;;;12.63;;
79646;SDS011;69119;41.718;21.786;2024-02-21T04:30:52;23.48;;;12.80;;
79646;SDS011;69119;41.718;21.786;2024-02-21T04:33:18;20.73;;;12.52;;
79646;SDS011;69119;41.718;21.786;2024-02-21T04:35:44;20.73;;;12.05;;
79646;SDS011;69119;41.718;21.786;2024-02-21T04:38:10;23.58;;;12.88;;
79646;SDS011;69119;41.718;21.786;2024-02-21T04:40:36;24.98;;;13.27;;
79646;SDS011;69119;41.718;21.786;2024-02-21T04:43:02;22.52;;;12.20;;
79646;SDS011;69119;41.718;21.786;2024-02-21T04:45:28;20.35;;;11.88;;
79646;SDS011;69119;41.718;21.786;2024-02-21T04:47:54;22.33;;;12.63;;
79646;SDS011;69119;41.718;21.786;2024-02-21T04:50:20;24.40;;;14.35;;
79646;SDS011;69119;41.718;21.786;2024-02-21T04:52:46;22.25;;;12.82;;
79646;SDS011;69119;41.718;21.786;2024-02-21T04:55:12;22.88;;;12.68;;
79646;SDS011;69119;41.718;21.786;2024-02-21T04:57:39;22.48;;;12.63;;
79646;SDS011;69119;41.718;21.786;2024-02-21T05:00:05;21.90;;;12.50;;
79646;SDS011;69119;41.718;21.786;2024-02-21T05:02:31;20.88;;;12.07;;
79646;SDS011;69119;41.718;21.786;2024-02-21T05:04:57;23.83;;;12.75;;
79646;SDS011;69119;41.718;21.786;2024-02-21T05:07:23;22.55;;;13.90;;
79646;SDS011;69119;41.718;21.786;2024-02-21T05:09:50;21.52;;;12.77;;
79646;SDS011;69119;41.718;21.786;2024-02-21T05:12:16;22.10;;;12.55;;
79646;SDS011;69119;41.718;21.786;2024-02-21T05:14:42;25.25;;;16.67;;
79646;SDS011;69119;41.718;21.786;2024-02-21T05:17:08;24.00;;;14.27;;
79646;SDS011;69119;41.718;21.786;2024-02-21T05:19:34;23.33;;;15.25;;
79646;SDS011;69119;41.718;21.786;2024-02-21T05:22:00;23.33;;;14.20;;
79646;SDS011;69119;41.718;21.786;2024-02-21T05:24:26;23.95;;;13.68;;
79646;SDS011;69119;41.718;21.786;2024-02-21T05:26:54;24.35;;;14.05;;
79646;SDS011;69119;41.718;21.786;2024-02-21T05:29:20;24.23;;;12.98;;
79646;SDS011;69119;41.718;21.786;2024-02-21T05:34:18;24.02;;;12.98;;
79646;SDS011;69119;41.718;21.786;2024-02-21T05:36:44;20.38;;;11.90;;
79646;SDS011;69119;41.718;21.786;2024-02-21T05:39:13;24.38;;;13.27;;
79646;SDS011;69119;41.718;21.786;2024-02-21T05:41:39;22.90;;;12.00;;
79646;SDS011;69119;41.718;21.786;2024-02-21T05:44:05;32.92;;;17.42;;
79646;SDS011;69119;41.718;21.786;2024-02-21T05:46:31;30.30;;;16.35;;
79646;SDS011;69119;41.718;21.786;2024-02-21T05:48:58;30.48;;;15.63;;
79646;SDS011;69119;41.718;21.786;2024-02-21T05:51:24;29.90;;;17.13;;
79646;SDS011;69119;41.718;21.786;2024-02-21T05:53:50;31.17;;;18.08;;
79646;SDS011;69119;41.718;21.786;2024-02-21T05:56:16;31.38;;;16.90;;
79646;SDS011;69119;41.718;21.786;2024-02-21T05:58:44;38.17;;;17.02;;
79646;SDS011;69119;41.718;21.786;2024-02-21T06:01:11;45.45;;;20.05;;
79646;SDS011;69119;41.718;21.786;2024-02-21T06:03:37;26.88;;;15.32;;
79646;SDS011;69119;41.718;21.786;2024-02-21T06:06:03;18.98;;;8.63;;
79646;SDS011;69119;41.718;21.786;2024-02-21T06:08:30;39.60;;;20.40;;
79646;SDS011;69119;41.718;21.786;2024-02-21T06:10:56;28.40;;;14.05;;
79646;SDS011;69119;41.718;21.786;2024-02-21T06:13:25;24.13;;;11.85;;
79646;SDS011;69119;41.718;21.786;2024-02-21T06:15:52;30.55;;;15.43;;
79646;SDS011;69119;41.718;21.786;2024-02-21T06:18:18;32.47;;;15.50;;
79646;SDS011;69119;41.718;21.786;2024-02-21T06:20:44;30.73;;;15.98;;
79646;SDS011;69119;41.718;21.786;2024-02-21T06:23:11;25.95;;;13.63;;
79646;SDS011;69119;41.718;21.786;2024-02-21T06:25:37;26.58;;;12.57;;
79646;SDS011;69119;41.718;21.786;2024-02-21T06:28:04;28.67;;;14.32;;
79646;SDS011;69119;41.718;21.786;2024-02-21T06:30:30;27.85;;;15.27;;
79646;SDS011;69119;41.718;21.786;2024-02-21T06:32:56;24.17;;;12.68;;
79646;SDS011;69119;41.718;21.786;2024-02-21T06:35:22;26.33;;;15.23;;
79646;SDS011;69119;41.718;21.786;2024-02-21T06:37:51;29.45;;;14.75;;
79646;SDS011;69119;41.718;21.786;2024-02-21T06:40:20;27.30;;;15.40;;
79646;SDS011;69119;41.718;21.786;2024-02-21T06:42:46;28.00;;;14.48;;
79646;SDS011;69119;41.718;21.786;2024-02-21T06:45:12;28.05;;;15.98;;
79646;SDS011;69119;41.718;21.786;2024-02-21T06:47:38;24.35;;;11.75;;
79646;SDS011;69119;41.718;21.786;2024-02-21T06:50:05;24.35;;;12.73;;
79646;SDS011;69119;41.718;21.786;2024-02-21T06:52:31;28.00;;;16.98;;
79646;SDS011;69119;41.718;21.786;2024-02-21T06:54:57;42.65;;;22.80;;
79646;SDS011;69119;41.718;21.786;2024-02-21T06:57:23;36.10;;;21.67;;
79646;SDS011;69119;41.718;21.786;2024-02-21T06:59:49;30.00;;;17.02;;
79646;SDS011;69119;41.718;21.786;2024-02-21T07:02:15;33.05;;;20.95;;
79646;SDS011;69119;41.718;21.786;2024-02-21T07:04:41;34.17;;;17.38;;
79646;SDS011;69119;41.718;21.786;2024-02-21T07:07:08;34.75;;;20.30;;
79646;SDS011;69119;41.718;21.786;2024-02-21T07:09:34;35.03;;;22.25;;
79646;SDS011;69119;41.718;21.786;2024-02-21T07:12:01;20.80;;;11.60;;
79646;SDS011;69119;41.718;21.786;2024-02-21T07:14:28;20.80;;;11.30;;
79646;SDS011;69119;41.718;21.786;2024-02-21T07:16:54;30.35;;;16.92;;
79646;SDS011;69119;41.718;21.786;2024-02-21T07:19:22;30.92;;;17.95;;
79646;SDS011;69119;41.718;21.786;2024-02-21T07:21:48;24.08;;;15.05;;
79646;SDS011;69119;41.718;21.786;2024-02-21T07:24:14;22.52;;;14.07;;
79646;SDS011;69119;41.718;21.786;2024-02-21T07:26:41;25.02;;;12.77;;
79646;SDS011;69119;41.718;21.786;2024-02-21T07:29:08;26.13;;;15.25;;
79646;SDS011;69119;41.718;21.786;2024-02-21T07:31:41;24.60;;;14.77;;
79646;SDS011;69119;41.718;21.786;2024-02-21T07:34:07;24.52;;;13.68;;
79646;SDS011;69119;41.718;21.786;2024-02-21T07:36:33;35.78;;;20.15;;
79646;SDS011;69119;41.718;21.786;2024-02-21T07:39:00;25.77;;;16.60;;
79646;SDS011;69119;41.718;21.786;2024-02-21T07:41:26;26.88;;;17.02;;
79646;SDS011;69119;41.718;21.786;2024-02-21T07:43:59;24.30;;;15.30;;
79646;SDS011;69119;41.718;21.786;2024-02-21T07:46:26;24.67;;;15.60;;
79646;SDS011;69119;41.718;21.786;2024-02-21T07:48:52;22.15;;;13.18;;
79646;SDS011;69119;41.718;21.786;2024-02-21T07:51:18;26.95;;;17.67;;
79646;SDS011;69119;41.718;21.786;2024-02-21T07:53:45;29.83;;;19.15;;
79646;SDS011;69119;41.718;21.786;2024-02-21T07:56:14;29.55;;;19.90;;
79646;SDS011;69119;41.718;21.786;2024-02-21T07:58:41;26.02;;;15.55;;
79646;SDS011;69119;41.718;21.786;2024-02-21T08:01:08;30.00;;;20.05;;
79646;SDS011;69119;41.718;21.786;2024-02-21T08:03:34;35.45;;;20.52;;
79646;SDS011;69119;41.718;21.786;2024-02-21T08:06:00;30.52;;;20.45;;
79646;SDS011;69119;41.718;21.786;2024-02-21T08:08:27;33.47;;;22.45;;
79646;SDS011;69119;41.718;21.786;2024-02-21T08:10:53;34.03;;;21.65;;
79646;SDS011;69119;41.718;21.786;2024-02-21T08:13:19;34.63;;;22.02;;
79646;SDS011;69119;41.718;21.786;2024-02-21T08:18:11;39.28;;;24.88;;
79646;SDS011;69119;41.718;21.786;2024-02-21T08:20:37;36.50;;;23.95;;
79646;SDS011;69119;41.718;21.786;2024-02-21T08:23:04;37.85;;;25.17;;
79646;SDS011;69119;41.718;21.786;2024-02-21T08:25:30;34.42;;;24.08;;
79646;SDS011;69119;41.718;21.786;2024-02-21T08:27:57;36.90;;;24.05;;
79646;SDS011;69119;41.718;21.786;2024-02-21T08:30:23;36.97;;;25.40;;
79646;SDS011;69119;41.718;21.786;2024-02-21T08:32:49;43.40;;;26.98;;
79646;SDS011;69119;41.718;21.786;2024-02-21T08:35:15;37.63;;;26.13;;
79646;SDS011;69119;41.718;21.786;2024-02-21T08:37:43;38.55;;;26.15;;
79646;SDS011;69119;41.718;21.786;2024-02-21T08:40:12;37.22;;;25.55;;
79646;SDS011;69119;41.718;21.786;2024-02-21T08:42:41;41.92;;;28.75;;
79646;SDS011;69119;41.718;21.786;2024-02-21T08:45:07;44.40;;;30.02;;
79646;SDS011;69119;41.718;21.786;2024-02-21T08:50:01;35.55;;;24.80;;
79646;SDS011;69119;41.718;21.786;2024-02-21T08:52:27;37.85;;;26.05;;
79646;SDS011;69119;41.718;21.786;2024-02-21T08:54:53;31.90;;;22.60;;
79646;SDS011;69119;41.718;21.786;2024-02-21T08:57:19;32.42;;;23.10;;
79646;SDS011;69119;41.718;21.786;2024-02-21T08:59:45;26.70;;;15.55;;
79646;SDS011;69119;41.718;21.786;2024-02-21T09:02:12;31.08;;;22.10;;
79646;SDS011;69119;41.718;21.786;2024-02-21T09:04:38;35.00;;;25.83;;
79646;SDS011;69119;41.718;21.786;2024-02-21T09:07:04;25.60;;;17.10;;
79646;SDS011;69119;41.718;21.786;2024-02-21T09:09:30;31.75;;;22.65;;
79646;SDS011;69119;41.718;21.786;2024-02-21T09:11:58;30.95;;;22.30;;
79646;SDS011;69119;41.718;21.786;2024-02-21T09:16:56;26.42;;;19.38;;
79646;SDS011;69119;41.718;21.786;2024-02-21T09:19:22;25.63;;;16.25;;
79646;SDS011;69119;41.718;21.786;2024-02-21T09:21:48;25.55;;;18.13;;
79646;SDS011;69119;41.718;21.786;2024-02-21T09:24:14;27.88;;;21.30;;
79646;SDS011;69119;41.718;21.786;2024-02-21T09:26:41;19.75;;;14.40;;
79646;SDS011;69119;41.718;21.786;2024-02-21T09:29:07;15.15;;;10.27;;
79646;SDS011;69119;41.718;21.786;2024-02-21T09:31:33;17.23;;;10.82;;
79646;SDS011;69119;41.718;21.786;2024-02-21T09:33:59;19.98;;;15.07;;
79646;SDS011;69119;41.718;21.786;2024-02-21T09:36:25;17.75;;;11.88;;
79646;SDS011;69119;41.718;21.786;2024-02-21T09:38:51;20.45;;;14.43;;
79646;SDS011;69119;41.718;21.786;2024-02-21T09:41:23;20.90;;;13.27;;
79646;SDS011;69119;41.718;21.786;2024-02-21T09:43:51;21.88;;;15.27;;
79646;SDS011;69119;41.718;21.786;2024-02-21T09:46:18;19.48;;;13.05;;
79646;SDS011;69119;41.718;21.786;2024-02-21T09:51:32;15.20;;;10.38;;
79646;SDS011;69119;41.718;21.786;2024-02-21T09:53:58;15.20;;;10.55;;
79646;SDS011;69119;41.718;21.786;2024-02-21T09:56:25;16.05;;;10.27;;
79646;SDS011;69119;41.718;21.786;2024-02-21T09:58:51;20.88;;;11.13;;
79646;SDS011;69119;41.718;21.786;2024-02-21T10:01:17;19.65;;;10.43;;
79646;SDS011;69119;41.718;21.786;2024-02-21T10:03:43;16.77;;;10.80;;
79646;SDS011;69119;41.718;21.786;2024-02-21T10:06:09;14.70;;;9.55;;
79646;SDS011;69119;41.718;21.786;2024-02-21T10:08:35;14.23;;;9.30;;
79646;SDS011;69119;41.718;21.786;2024-02-21T10:11:01;16.10;;;10.55;;
79646;SDS011;69119;41.718;21.786;2024-02-21T10:13:28;14.93;;;8.73;;
79646;SDS011;69119;41.718;21.786;2024-02-21T10:16:05;16.45;;;9.18;;
79646;SDS011;69119;41.718;21.786;2024-02-21T10:18:31;13.55;;;8.52;;
79646;SDS011;69119;41.718;21.786;2024-02-21T10:21:01;15.98;;;9.55;;
79646;SDS011;69119;41.718;21.786;2024-02-21T10:23:28;14.40;;;9.13;;
79646;SDS011;69119;41.718;21.786;2024-02-21T10:26:04;14.88;;;9.30;;
79646;SDS011;69119;41.718;21.786;2024-02-21T10:28:31;15.00;;;10.07;;
79646;SDS011;69119;41.718;21.786;2024-02-21T10:30:57;9.43;;;5.90;;
79646;SDS011;69119;41.718;21.786;2024-02-21T10:33:23;11.48;;;6.93;;
79646;SDS011;69119;41.718;21.786;2024-02-21T10:35:52;12.88;;;7.97;;
79646;SDS011;69119;41.718;21.786;2024-02-21T10:38:18;21.17;;;13.02;;
79646;SDS011;69119;41.718;21.786;2024-02-21T10:40:45;14.85;;;9.45;;
79646;SDS011;69119;41.718;21.786;2024-02-21T10:43:13;13.75;;;7.75;;
79646;SDS011;69119;41.718;21.786;2024-02-21T10:45:39;11.82;;;7.55;;
79646;SDS011;69119;41.718;21.786;2024-02-21T10:48:16;12.88;;;8.07;;
79646;SDS011;69119;41.718;21.786;2024-02-21T10:50:56;13.00;;;6.60;;
79646;SDS011;69119;41.718;21.786;2024-02-21T10:56:06;12.15;;;8.27;;
79646;SDS011;69119;41.718;21.786;2024-02-21T10:58:36;17.38;;;9.32;;
79646;SDS011;69119;41.718;21.786;2024-02-21T11:03:28;6.20;;;2.83;;
79646;SDS011;69119;41.718;21.786;2024-02-21T11:05:55;8.95;;;3.55;;
79646;SDS011;69119;41.718;21.786;2024-02-21T11:08:21;6.72;;;3.05;;
79646;SDS011;69119;41.718;21.786;2024-02-21T11:10:47;7.13;;;3.45;;
79646;SDS011;69119;41.718;21.786;2024-02-21T11:13:13;8.23;;;3.75;;
79646;SDS011;69119;41.718;21.786;2024-02-21T11:18:06;7.03;;;3.47;;
79646;SDS011;69119;41.718;21.786;2024-02-21T11:20:35;7.38;;;3.72;;
79646;SDS011;69119;41.718;21.786;2024-02-21T11:23:02;7.32;;;2.92;;
79646;SDS011;69119;41.718;21.786;2024-02-21T11:27:59;7.18;;;3.40;;
79646;SDS011;69119;41.718;21.786;2024-02-21T11:30:31;8.40;;;3.50;;
79646;SDS011;69119;41.718;21.786;2024-02-21T11:33:05;9.40;;;4.60;;
79646;SDS011;69119;41.718;21.786;2024-02-21T11:35:32;14.02;;;7.15;;
79646;SDS011;69119;41.718;21.786;2024-02-21T11:38:13;7.45;;;3.53;;
79646;SDS011;69119;41.718;21.786;2024-02-21T11:40:41;6.95;;;3.00;;
79646;SDS011;69119;41.718;21.786;2024-02-21T11:43:07;7.80;;;3.63;;
79646;SDS011;69119;41.718;21.786;2024-02-21T11:45:33;10.07;;;4.72;;
79646;SDS011;69119;41.718;21.786;2024-02-21T11:47:59;10.13;;;5.25;;
79646;SDS011;69119;41.718;21.786;2024-02-21T11:50:28;8.45;;;4.45;;
79646;SDS011;69119;41.718;21.786;2024-02-21T11:52:54;7.95;;;3.45;;
79646;SDS011;69119;41.718;21.786;2024-02-21T11:57:47;6.15;;;2.85;;
79646;SDS011;69119;41.718;21.786;2024-02-21T12:00:14;7.03;;;3.28;;
79646;SDS011;69119;41.718;21.786;2024-02-21T12:02:40;5.60;;;1.83;;
79646;SDS011;69119;41.718;21.786;2024-02-21T12:05:07;7.18;;;2.65;;
79646;SDS011;69119;41.718;21.786;2024-02-21T12:07:33;7.55;;;3.15;;
79646;SDS011;69119;41.718;21.786;2024-02-21T12:10:00;5.15;;;1.98;;
79646;SDS011;69119;41.718;21.786;2024-02-21T12:12:26;6.35;;;2.78;;
79646;SDS011;69119;41.718;21.786;2024-02-21T12:14:55;5.65;;;2.80;;
79646;SDS011;69119;41.718;21.786;2024-02-21T12:17:24;6.57;;;2.78;;
79646;SDS011;69119;41.718;21.786;2024-02-21T12:19:50;6.38;;;2.85;;
79646;SDS011;69119;41.718;21.786;2024-02-21T12:22:17;5.63;;;2.13;;
79646;SDS011;69119;41.718;21.786;2024-02-21T12:24:44;7.68;;;3.08;;
79646;SDS011;69119;41.718;21.786;2024-02-21T12:27:12;7.35;;;3.72;;
79646;SDS011;69119;41.718;21.786;2024-02-21T12:29:39;6.10;;;2.47;;
79646;SDS011;69119;41.718;21.786;2024-02-21T12:32:05;6.90;;;3.10;;
79646;SDS011;69119;41.718;21.786;2024-02-21T12:34:31;7.20;;;3.22;;
79646;SDS011;69119;41.718;21.786;2024-02-21T12:36:58;6.43;;;3.22;;
79646;SDS011;69119;41.718;21.786;2024-02-21T12:39:24;6.85;;;3.72;;
79646;SDS011;69119;41.718;21.786;2024-02-21T12:41:52;6.65;;;2.35;;
79646;SDS011;69119;41.718;21.786;2024-02-21T12:44:19;6.00;;;2.70;;
79646;SDS011;69119;41.718;21.786;2024-02-21T12:46:45;7.88;;;3.03;;
79646;SDS011;69119;41.718;21.786;2024-02-21T12:49:11;6.53;;;2.70;;
79646;SDS011;69119;41.718;21.786;2024-02-21T12:51:37;8.75;;;3.38;;
79646;SDS011;69119;41.718;21.786;2024-02-21T12:54:04;7.20;;;2.72;;
79646;SDS011;69119;41.718;21.786;2024-02-21T12:56:30;6.53;;;2.78;;
79646;SDS011;69119;41.718;21.786;2024-02-21T12:58:57;7.00;;;3.10;;
79646;SDS011;69119;41.718;21.786;2024-02-21T13:01:23;6.70;;;2.03;;
79646;SDS011;69119;41.718;21.786;2024-02-21T13:03:49;5.80;;;2.80;;
79646;SDS011;69119;41.718;21.786;2024-02-21T13:06:15;7.57;;;3.78;;
79646;SDS011;69119;41.718;21.786;2024-02-21T13:08:41;7.47;;;3.92;;
79646;SDS011;69119;41.718;21.786;2024-02-21T13:11:09;8.52;;;3.33;;
79646;SDS011;69119;41.718;21.786;2024-02-21T13:13:36;10.55;;;4.43;;
79646;SDS011;69119;41.718;21.786;2024-02-21T13:16:02;7.85;;;4.25;;
79646;SDS011;69119;41.718;21.786;2024-02-21T13:18:28;7.35;;;3.67;;
79646;SDS011;69119;41.718;21.786;2024-02-21T13:20:54;7.22;;;3.42;;
79646;SDS011;69119;41.718;21.786;2024-02-21T13:23:21;7.10;;;2.97;;
79646;SDS011;69119;41.718;21.786;2024-02-21T13:25:47;8.13;;;4.25;;
79646;SDS011;69119;41.718;21.786;2024-02-21T13:28:14;8.82;;;4.22;;
79646;SDS011;69119;41.718;21.786;2024-02-21T13:30:41;8.38;;;3.55;;
79646;SDS011;69119;41.718;21.786;2024-02-21T13:33:07;7.72;;;3.72;;
79646;SDS011;69119;41.718;21.786;2024-02-21T13:35:34;16.30;;;8.30;;
79646;SDS011;69119;41.718;21.786;2024-02-21T13:38:01;11.35;;;5.05;;
79646;SDS011;69119;41.718;21.786;2024-02-21T13:40:27;10.43;;;5.82;;
79646;SDS011;69119;41.718;21.786;2024-02-21T13:42:53;10.15;;;4.28;;
79646;SDS011;69119;41.718;21.786;2024-02-21T13:45:20;15.30;;;7.78;;
79646;SDS011;69119;41.718;21.786;2024-02-21T13:47:46;11.00;;;4.85;;
79646;SDS011;69119;41.718;21.786;2024-02-21T13:50:13;9.23;;;4.53;;
79646;SDS011;69119;41.718;21.786;2024-02-21T13:52:39;10.35;;;5.30;;
79646;SDS011;69119;41.718;21.786;2024-02-21T13:55:05;10.10;;;4.82;;
79646;SDS011;69119;41.718;21.786;2024-02-21T13:57:37;9.13;;;5.43;;
79646;SDS011;69119;41.718;21.786;2024-02-21T14:00:06;9.27;;;4.70;;
79646;SDS011;69119;41.718;21.786;2024-02-21T14:02:36;9.32;;;4.85;;
79646;SDS011;69119;41.718;21.786;2024-02-21T14:05:02;7.72;;;3.95;;
79646;SDS011;69119;41.718;21.786;2024-02-21T14:07:30;8.82;;;4.75;;
79646;SDS011;69119;41.718;21.786;2024-02-21T14:09:58;9.00;;;5.03;;
79646;SDS011;69119;41.718;21.786;2024-02-21T14:12:24;13.85;;;8.15;;
79646;SDS011;69119;41.718;21.786;2024-02-21T14:14:50;20.70;;;11.95;;
79646;SDS011;69119;41.718;21.786;2024-02-21T14:17:17;16.88;;;10.52;;
79646;SDS011;69119;41.718;21.786;2024-02-21T14:19:43;18.63;;;9.75;;
79646;SDS011;69119;41.718;21.786;2024-02-21T14:22:09;15.40;;;9.25;;
79646;SDS011;69119;41.718;21.786;2024-02-21T14:24:36;13.52;;;8.93;;
79646;SDS011;69119;41.718;21.786;2024-02-21T14:27:03;12.07;;;7.10;;
79646;SDS011;69119;41.718;21.786;2024-02-21T14:29:29;13.60;;;7.53;;
79646;SDS011;69119;41.718;21.786;2024-02-21T14:31:55;11.45;;;6.05;;
79646;SDS011;69119;41.718;21.786;2024-02-21T14:34:21;13.02;;;6.68;;
79646;SDS011;69119;41.718;21.786;2024-02-21T14:36:47;13.48;;;7.47;;
79646;SDS011;69119;41.718;21.786;2024-02-21T14:39:13;13.70;;;7.07;;
79646;SDS011;69119;41.718;21.786;2024-02-21T14:41:39;16.33;;;9.02;;
79646;SDS011;69119;41.718;21.786;2024-02-21T14:44:05;18.42;;;10.65;;
79646;SDS011;69119;41.718;21.786;2024-02-21T14:46:34;19.35;;;12.07;;
79646;SDS011;69119;41.718;21.786;2024-02-21T14:49:00;15.32;;;9.55;;
79646;SDS011;69119;41.718;21.786;2024-02-21T14:51:28;12.30;;;7.03;;